createdAt,value
2023-01-22T00:01:22.247Z,96.70
2023-01-22T00:03:50.260Z,97.70
2023-01-22T00:06:24.917Z,97.90
2023-01-22T00:08:53.668Z,97.90
2023-01-22T00:11:21.460Z,98.00
2023-01-22T00:13:49.765Z,98.10
2023-01-22T00:16:18.226Z,98.50
2023-01-22T00:18:49.584Z,98.10
2023-01-22T00:21:17.369Z,97.90
2023-01-22T00:23:45.260Z,97.90
2023-01-22T00:26:15.512Z,98.70
2023-01-22T00:28:48.317Z,99.60
2023-01-22T00:31:17.646Z,99.90
2023-01-22T00:33:47.459Z,99.90
2023-01-22T00:36:18.052Z,99.90
2023-01-22T00:38:49.739Z,99.90
2023-01-22T00:41:18.694Z,99.90
2023-01-22T00:44:06.272Z,99.90
2023-01-22T00:46:34.146Z,99.90
2023-01-22T00:49:06.972Z,99.90
2023-01-22T00:51:39.763Z,99.90
2023-01-22T00:54:20.800Z,99.90
2023-01-22T00:56:48.917Z,99.90
2023-01-22T00:59:16.994Z,99.90
2023-01-22T01:01:44.605Z,99.90
2023-01-22T01:04:12.198Z,99.90
2023-01-22T01:06:39.894Z,99.90
2023-01-22T01:09:07.650Z,99.90
2023-01-22T01:11:39.478Z,99.90
2023-01-22T01:14:07.395Z,99.90
2023-01-22T01:16:34.983Z,99.90
2023-01-22T01:19:06.661Z,99.90
2023-01-22T01:21:39.168Z,99.90
2023-01-22T01:24:07.311Z,99.90
2023-01-22T01:26:35.612Z,99.90
2023-01-22T01:29:05.005Z,99.90
2023-01-22T01:31:32.630Z,99.90
2023-01-22T01:34:00.009Z,99.90
2023-01-22T01:36:47.151Z,99.90
2023-01-22T01:38:57.978Z,99.90
2023-01-22T01:41:27.332Z,99.90
2023-01-22T01:44:13.762Z,99.90
2023-01-22T01:46:48.345Z,99.90
2023-01-22T01:49:26.129Z,99.90
2023-01-22T01:51:57.403Z,99.90
2023-01-22T01:54:27.077Z,99.90
2023-01-22T01:56:59.037Z,99.90
2023-01-22T01:59:27.239Z,99.90
2023-01-22T02:01:56.076Z,99.90
2023-01-22T02:04:24.734Z,99.90
2023-01-22T02:06:55.047Z,99.90
2023-01-22T02:09:23.292Z,99.00
2023-01-22T02:11:52.184Z,99.90
2023-01-22T02:14:23.427Z,99.90
2023-01-22T02:17:03.110Z,99.90
2023-01-22T02:19:30.933Z,99.90
2023-01-22T02:21:59.068Z,99.90
2023-01-22T02:24:30.223Z,99.90
2023-01-22T02:26:59.166Z,99.90
2023-01-22T02:29:30.387Z,99.90
2023-01-22T02:31:58.276Z,99.90
2023-01-22T02:34:26.022Z,99.90
2023-01-22T02:36:54.660Z,99.90
2023-01-22T02:39:22.575Z,99.90
2023-01-22T02:41:52.121Z,99.50
2023-01-22T02:44:20.067Z,98.60
2023-01-22T02:46:48.156Z,97.80
2023-01-22T02:49:15.988Z,98.00
2023-01-22T02:51:43.576Z,98.20
2023-01-22T02:54:12.359Z,97.50
2023-01-22T02:56:40.196Z,97.50
2023-01-22T02:59:16.533Z,97.60
2023-01-22T03:01:44.532Z,97.30
2023-01-22T03:04:12.099Z,97.40
2023-01-22T03:06:45.883Z,98.40
2023-01-22T03:09:16.124Z,98.40
2023-01-22T03:11:45.854Z,98.00
2023-01-22T03:14:37.137Z,98.30
2023-01-22T03:17:26.419Z,98.60
2023-01-22T03:20:12.838Z,98.10
2023-01-22T03:22:40.729Z,97.50
2023-01-22T03:25:10.088Z,97.30
2023-01-22T03:27:41.125Z,97.40
2023-01-22T03:30:10.877Z,96.50
2023-01-22T03:32:43.937Z,96.60
2023-01-22T03:35:15.579Z,96.20
2023-01-22T03:37:45.110Z,95.60
2023-01-22T03:40:13.453Z,95.80
2023-01-22T03:42:42.293Z,95.80
2023-01-22T03:45:10.234Z,94.90
2023-01-22T03:47:40.209Z,94.20
2023-01-22T03:50:12.614Z,93.90
2023-01-22T03:52:42.249Z,94.50
2023-01-22T03:55:10.699Z,94.20
2023-01-22T03:57:38.693Z,94.80
2023-01-22T04:00:20.603Z,94.60
2023-01-22T04:02:50.196Z,95.10
2023-01-22T04:05:19.620Z,95.50
2023-01-22T04:07:50.856Z,93.60
2023-01-22T04:10:20.682Z,94.00
2023-01-22T04:12:49.063Z,93.60
2023-01-22T04:15:18.388Z,93.80
2023-01-22T04:17:46.945Z,93.90
2023-01-22T04:20:17.134Z,93.70
2023-01-22T04:23:00.322Z,93.90
2023-01-22T04:25:28.605Z,93.90
2023-01-22T04:27:56.757Z,94.00
2023-01-22T04:30:31.209Z,94.20
2023-01-22T04:33:01.381Z,94.40
2023-01-22T04:35:31.951Z,93.70
2023-01-22T04:38:02.379Z,93.40
2023-01-22T04:40:30.187Z,93.80
2023-01-22T04:43:14.788Z,94.10
2023-01-22T04:45:42.998Z,93.60
2023-01-22T04:48:11.482Z,93.70
2023-01-22T04:50:41.428Z,93.90
2023-01-22T04:53:11.347Z,94.40
2023-01-22T04:55:39.104Z,93.90
2023-01-22T04:58:08.673Z,93.70
2023-01-22T05:00:36.363Z,93.60
2023-01-22T05:03:23.870Z,93.50
2023-01-22T05:05:51.424Z,93.60
2023-01-22T05:08:19.499Z,93.60
2023-01-22T05:10:46.958Z,94.10
2023-01-22T05:13:25.895Z,94.00
2023-01-22T05:15:54.355Z,93.70
2023-01-22T05:18:24.024Z,93.80
2023-01-22T05:20:52.608Z,93.80
2023-01-22T05:23:42.079Z,93.20
2023-01-22T05:26:10.303Z,93.00
2023-01-22T05:28:40.713Z,93.20
2023-01-22T05:31:16.667Z,93.40
2023-01-22T05:34:01.242Z,93.20
2023-01-22T05:36:30.600Z,93.30
2023-01-22T05:39:00.070Z,92.90
2023-01-22T05:41:28.549Z,93.30
2023-01-22T05:43:57.113Z,93.00
2023-01-22T05:46:29.952Z,92.60
2023-01-22T05:49:16.452Z,92.70
2023-01-22T05:52:04.043Z,93.00
2023-01-22T05:54:32.186Z,93.80
2023-01-22T05:57:00.513Z,94.90
2023-01-22T05:59:29.995Z,95.30
2023-01-22T06:02:02.495Z,95.50
2023-01-22T06:04:32.953Z,95.70
2023-01-22T06:09:50.124Z,95.40
2023-01-22T06:12:18.875Z,95.60
2023-01-22T06:14:47.639Z,95.60
2023-01-22T06:17:15.481Z,95.50
2023-01-22T06:19:44.897Z,95.50
2023-01-22T06:22:14.628Z,95.00
2023-01-22T06:24:51.977Z,95.00
2023-01-22T06:27:20.165Z,95.10
2023-01-22T06:30:12.674Z,95.20
2023-01-22T06:32:41.103Z,95.30
2023-01-22T06:35:10.354Z,95.20
2023-01-22T06:37:39.006Z,96.90
2023-01-22T06:40:07.782Z,96.10
2023-01-22T06:42:38.115Z,95.80
2023-01-22T06:45:07.784Z,95.90
2023-01-22T06:47:36.983Z,96.00
2023-01-22T06:50:05.572Z,96.10
2023-01-22T06:52:35.307Z,96.50
2023-01-22T06:55:03.272Z,96.70
2023-01-22T06:57:31.100Z,97.30
2023-01-22T06:59:58.761Z,97.60
2023-01-22T07:02:26.572Z,97.10
2023-01-22T07:04:54.903Z,98.50
2023-01-22T07:07:23.785Z,98.60
2023-01-22T07:09:51.781Z,98.90
2023-01-22T07:12:19.775Z,99.30
2023-01-22T07:14:47.200Z,99.10
2023-01-22T07:17:15.076Z,99.00
2023-01-22T07:19:43.788Z,99.10
2023-01-22T07:22:12.632Z,99.20
2023-01-22T07:24:42.168Z,99.40
2023-01-22T07:27:09.596Z,99.10
2023-01-22T07:29:37.303Z,98.80
2023-01-22T07:32:05.380Z,99.10
2023-01-22T07:34:33.016Z,99.40
2023-01-22T07:37:02.291Z,98.70
2023-01-22T07:39:30.528Z,97.20
2023-01-22T07:42:01.708Z,97.10
2023-01-22T07:44:31.771Z,97.40
2023-01-22T07:46:59.368Z,98.10
2023-01-22T07:49:27.526Z,98.40
2023-01-22T07:51:55.626Z,97.70
2023-01-22T07:54:23.781Z,97.80
2023-01-22T07:56:51.477Z,97.20
2023-01-22T07:59:19.291Z,96.70
2023-01-22T08:01:50.977Z,97.00
2023-01-22T08:04:18.307Z,96.50
2023-01-22T08:06:45.933Z,96.60
2023-01-22T08:09:14.026Z,96.90
2023-01-22T08:11:49.276Z,96.20
2023-01-22T08:14:17.196Z,96.40
2023-01-22T08:16:45.121Z,96.50
2023-01-22T08:19:16.501Z,96.30
2023-01-22T08:21:44.433Z,95.70
2023-01-22T08:24:12.966Z,95.20
2023-01-22T08:26:41.311Z,94.10
2023-01-22T08:29:09.312Z,93.90
2023-01-22T08:31:38.829Z,93.20
2023-01-22T08:34:07.729Z,92.10
2023-01-22T08:36:39.713Z,91.10
2023-01-22T08:39:07.588Z,90.90
2023-01-22T08:41:35.649Z,90.50
2023-01-22T08:44:03.865Z,90.30
2023-01-22T08:46:32.482Z,90.30
2023-01-22T08:48:59.926Z,90.00
2023-01-22T08:51:36.048Z,87.90
2023-01-22T08:54:04.299Z,86.90
2023-01-22T08:56:31.882Z,87.30
2023-01-22T08:59:01.172Z,86.50
2023-01-22T09:01:29.003Z,86.00
2023-01-22T09:03:56.898Z,85.70
2023-01-22T09:06:25.332Z,86.00
2023-01-22T09:08:53.672Z,85.40
2023-01-22T09:11:26.492Z,84.80
2023-01-22T09:13:56.667Z,85.40
2023-01-22T09:16:25.666Z,85.10
2023-01-22T09:18:53.969Z,83.50
2023-01-22T09:21:22.168Z,81.90
2023-01-22T09:23:49.803Z,80.60
2023-01-22T09:26:18.260Z,80.10
2023-01-22T09:28:49.751Z,79.80
2023-01-22T09:31:17.743Z,78.90
2023-01-22T09:33:45.977Z,78.60
2023-01-22T09:36:16.281Z,78.10
2023-01-22T09:38:44.308Z,78.20
2023-01-22T09:41:18.404Z,78.20
2023-01-22T09:43:52.938Z,77.10
2023-01-22T09:46:36.286Z,78.80
2023-01-22T09:49:14.290Z,79.30
2023-01-22T09:51:45.668Z,78.60
2023-01-22T09:54:15.843Z,77.90
2023-01-22T09:56:50.512Z,79.40
2023-01-22T09:59:21.403Z,79.90
2023-01-22T10:01:56.015Z,80.70
2023-01-22T10:04:31.922Z,80.10
2023-01-22T10:07:02.029Z,79.20
2023-01-22T10:09:32.927Z,79.60
2023-01-22T10:12:04.284Z,80.90
2023-01-22T10:14:32.286Z,82.00
2023-01-22T10:17:03.658Z,81.10
2023-01-22T10:19:35.502Z,80.90
2023-01-22T10:22:06.986Z,81.20
2023-01-22T10:24:35.477Z,80.20
2023-01-22T10:27:18.313Z,78.50
2023-01-22T10:30:04.703Z,76.70
2023-01-22T10:32:32.798Z,76.80
2023-01-22T10:35:07.675Z,79.20
2023-01-22T10:37:56.490Z,79.50
2023-01-22T10:40:31.761Z,78.50
2023-01-22T10:43:14.221Z,77.30
2023-01-22T10:45:57.795Z,76.80
2023-01-22T10:48:26.025Z,77.20
2023-01-22T10:51:12.856Z,77.50
2023-01-22T10:53:55.971Z,77.80
2023-01-22T10:56:33.524Z,77.30
2023-01-22T10:59:05.508Z,76.30
2023-01-22T11:01:36.537Z,74.70
2023-01-22T11:04:28.140Z,73.40
2023-01-22T11:07:17.921Z,73.20
2023-01-22T11:09:52.395Z,74.70
2023-01-22T11:12:28.073Z,75.70
2023-01-22T11:15:33.560Z,75.20
2023-01-22T11:18:02.794Z,74.20
2023-01-22T11:20:46.460Z,74.30
2023-01-22T11:23:50.136Z,74.70
2023-01-22T11:26:27.372Z,74.90
2023-01-22T11:29:10.563Z,73.00
2023-01-22T11:31:42.761Z,73.10
2023-01-22T11:34:43.671Z,74.00
2023-01-22T11:37:42.612Z,72.60
2023-01-22T11:40:34.943Z,71.70
2023-01-22T11:43:20.997Z,71.40
2023-01-22T11:46:04.898Z,70.90
2023-01-22T11:48:41.053Z,71.20
2023-01-22T11:51:22.028Z,70.40
2023-01-22T11:54:09.649Z,69.70
2023-01-22T11:56:42.208Z,68.00
2023-01-22T11:59:28.259Z,68.30
2023-01-22T12:02:25.206Z,68.80
2023-01-22T12:05:18.403Z,69.30
2023-01-22T12:07:52.112Z,71.30
2023-01-22T12:10:42.067Z,71.00
2023-01-22T12:13:22.993Z,70.20
2023-01-22T12:15:57.402Z,69.20
2023-01-22T12:18:57.738Z,69.70
2023-01-22T12:21:36.076Z,69.10
2023-01-22T12:24:15.943Z,68.70
2023-01-22T12:26:51.673Z,67.00
2023-01-22T12:29:26.511Z,65.80
2023-01-22T12:32:09.547Z,64.80
2023-01-22T12:34:41.379Z,62.30
2023-01-22T12:37:13.367Z,61.70
2023-01-22T12:40:03.437Z,61.60
2023-01-22T12:42:38.208Z,59.60
2023-01-22T12:45:27.434Z,61.70
2023-01-22T12:47:58.675Z,60.50
2023-01-22T12:50:27.949Z,58.30
2023-01-22T12:53:05.848Z,59.20
2023-01-22T12:55:38.273Z,59.40
2023-01-22T12:58:10.026Z,57.70
2023-01-22T13:00:39.517Z,56.90
2023-01-22T13:03:33.274Z,56.60
2023-01-22T13:05:56.377Z,55.80
2023-01-22T13:08:27.878Z,55.30
2023-01-22T13:11:00.726Z,55.40
2023-01-22T13:13:37.703Z,54.80
2023-01-22T13:16:09.509Z,52.60
2023-01-22T13:18:46.881Z,52.50
2023-01-22T13:21:17.761Z,52.80
2023-01-22T13:23:48.292Z,53.10
2023-01-22T13:26:22.037Z,54.90
2023-01-22T13:28:56.732Z,54.10
2023-01-22T13:31:25.112Z,53.30
2023-01-22T13:33:56.042Z,53.20
2023-01-22T13:36:23.461Z,52.40
2023-01-22T13:38:54.085Z,51.50
2023-01-22T13:41:28.419Z,51.00
2023-01-22T13:43:57.042Z,50.00
2023-01-22T13:46:27.046Z,48.70
2023-01-22T13:49:10.275Z,45.90
2023-01-22T13:51:38.900Z,45.00
2023-01-22T13:54:07.484Z,43.40
2023-01-22T13:56:35.215Z,42.60
2023-01-22T13:59:09.471Z,42.50
2023-01-22T14:01:40.719Z,42.10
2023-01-22T14:04:12.376Z,42.70
2023-01-22T14:06:46.463Z,43.50
2023-01-22T14:09:17.409Z,44.70
2023-01-22T14:11:45.228Z,45.60
2023-01-22T14:14:18.687Z,46.80
2023-01-22T14:16:48.581Z,47.50
2023-01-22T14:19:19.254Z,48.40
2023-01-22T14:21:47.352Z,49.20
2023-01-22T14:24:15.491Z,50.40
2023-01-22T14:26:43.098Z,51.30
2023-01-22T14:29:11.209Z,52.10
2023-01-22T14:31:39.041Z,52.60
2023-01-22T14:34:07.353Z,53.60
2023-01-22T14:36:34.985Z,54.20
2023-01-22T14:39:06.900Z,55.60
2023-01-22T14:41:34.441Z,55.40
2023-01-22T14:44:05.257Z,55.70
2023-01-22T14:46:32.941Z,56.40
2023-01-22T14:49:02.342Z,57.00
2023-01-22T14:51:30.674Z,57.50
2023-01-22T14:53:59.349Z,57.90
2023-01-22T14:56:27.440Z,58.40
2023-01-22T14:58:55.147Z,58.80
2023-01-22T15:01:23.977Z,59.40
2023-01-22T15:03:53.028Z,60.00
2023-01-22T15:06:20.988Z,60.50
2023-01-22T15:08:48.664Z,61.00
2023-01-22T15:11:16.271Z,61.60
2023-01-22T15:13:44.590Z,62.10
2023-01-22T15:16:12.542Z,62.70
2023-01-22T15:18:40.622Z,63.20
2023-01-22T15:21:08.389Z,63.90
2023-01-22T15:23:36.672Z,64.00
2023-01-22T15:26:08.431Z,64.20
2023-01-22T15:28:36.869Z,64.20
2023-01-22T15:31:08.946Z,64.40
2023-01-22T15:33:37.546Z,64.70
2023-01-22T15:36:07.156Z,65.30
2023-01-22T15:38:35.148Z,65.50
2023-01-22T15:41:09.960Z,65.90
2023-01-22T15:43:38.149Z,66.20
2023-01-22T15:46:06.713Z,66.20
2023-01-22T15:48:36.262Z,66.40
2023-01-22T15:51:10.050Z,66.70
2023-01-22T15:53:38.325Z,66.80
2023-01-22T15:56:06.741Z,67.00
2023-01-22T15:58:35.269Z,67.50
2023-01-22T16:01:03.248Z,67.60
2023-01-22T16:03:31.654Z,67.80
2023-01-22T16:06:14.737Z,67.80
2023-01-22T16:08:44.718Z,68.00
2023-01-22T16:11:13.333Z,68.30
2023-01-22T16:13:42.094Z,68.20
2023-01-22T16:16:23.333Z,68.60
2023-01-22T16:18:50.750Z,69.10
2023-01-22T16:21:20.577Z,69.50
2023-01-22T16:23:48.940Z,69.70
2023-01-22T16:26:20.344Z,69.90
2023-01-22T16:28:50.843Z,70.50
2023-01-22T16:31:23.647Z,70.60
2023-01-22T16:33:54.209Z,70.90
2023-01-22T16:36:24.118Z,71.00
2023-01-22T16:38:53.430Z,71.30
2023-01-22T16:41:28.211Z,71.60
2023-01-22T16:44:01.173Z,71.90
2023-01-22T16:46:31.473Z,71.80
2023-01-22T16:49:06.255Z,71.90
2023-01-22T16:51:35.480Z,72.30
2023-01-22T16:54:06.306Z,72.50
2023-01-22T16:56:37.002Z,72.50
2023-01-22T16:59:04.817Z,72.80
2023-01-22T17:01:32.740Z,73.20
2023-01-22T17:04:00.624Z,73.10
2023-01-22T17:06:34.618Z,73.60
2023-01-22T17:09:02.568Z,73.30
2023-01-22T17:11:30.794Z,73.60
2023-01-22T17:14:00.130Z,73.60
2023-01-22T17:16:28.311Z,73.40
2023-01-22T17:18:56.278Z,72.90
2023-01-22T17:21:24.223Z,72.50
2023-01-22T17:23:52.234Z,72.80
2023-01-22T17:26:20.249Z,72.20
2023-01-22T17:28:47.753Z,72.00
2023-01-22T17:31:20.149Z,71.80
2023-01-22T17:33:48.985Z,71.50
2023-01-22T17:36:19.573Z,71.80
2023-01-22T17:38:47.408Z,71.40
2023-01-22T17:41:20.125Z,71.80
2023-01-22T17:43:49.052Z,72.70
2023-01-22T17:46:19.978Z,73.40
2023-01-22T17:48:49.918Z,74.70
2023-01-22T17:51:21.030Z,75.60
2023-01-22T17:53:49.915Z,75.50
2023-01-22T17:56:21.478Z,75.60
2023-01-22T17:58:52.601Z,76.10
2023-01-22T18:01:24.038Z,76.20
2023-01-22T18:03:52.279Z,76.20
2023-01-22T18:06:21.069Z,76.70
2023-01-22T18:08:49.030Z,77.00
2023-01-22T18:11:20.105Z,76.60
2023-01-22T18:13:49.061Z,76.70
2023-01-22T18:16:18.341Z,77.60
2023-01-22T18:18:47.126Z,77.10
2023-01-22T18:21:21.772Z,77.50
2023-01-22T18:23:49.665Z,77.90
2023-01-22T18:26:20.457Z,78.00
2023-01-22T18:28:47.831Z,78.60
2023-01-22T18:31:17.879Z,81.80
2023-01-22T18:33:46.424Z,80.60
2023-01-22T18:36:17.067Z,80.70
2023-01-22T18:38:47.973Z,80.90
2023-01-22T18:41:19.896Z,80.00
2023-01-22T18:43:48.753Z,80.10
2023-01-22T18:46:20.191Z,80.60
2023-01-22T18:48:51.898Z,81.10
2023-01-22T18:51:19.848Z,81.50
2023-01-22T18:53:47.484Z,82.80
2023-01-22T18:56:15.384Z,83.40
2023-01-22T18:58:44.857Z,81.90
2023-01-22T19:01:16.667Z,81.80
2023-01-22T19:03:47.500Z,82.30
2023-01-22T19:06:17.628Z,83.40
2023-01-22T19:08:47.744Z,82.30
2023-01-22T19:11:17.029Z,82.20
2023-01-22T19:13:45.276Z,82.50
2023-01-22T19:16:16.220Z,82.90
2023-01-22T19:18:47.693Z,83.20
2023-01-22T19:21:21.014Z,83.10
2023-01-22T19:23:51.689Z,83.30
2023-01-22T19:26:25.660Z,83.90
2023-01-22T19:28:56.328Z,84.20
2023-01-22T19:31:26.961Z,85.00
2023-01-22T19:33:56.054Z,85.10
2023-01-22T19:36:27.661Z,85.00
2023-01-22T19:39:01.588Z,85.30
2023-01-22T19:41:29.391Z,86.20
2023-01-22T19:44:01.776Z,86.40
2023-01-22T19:46:30.209Z,86.70
2023-01-22T19:48:58.515Z,86.70
2023-01-22T19:51:27.652Z,86.90
2023-01-22T19:53:58.596Z,87.40
2023-01-22T19:56:31.708Z,88.10
2023-01-22T19:59:02.779Z,88.90
2023-01-22T20:01:30.293Z,90.20
2023-01-22T20:03:57.829Z,89.50
2023-01-22T20:06:25.596Z,89.30
2023-01-22T20:08:56.588Z,89.70
2023-01-22T20:11:25.844Z,90.00
2023-01-22T20:13:53.278Z,90.10
2023-01-22T20:16:26.266Z,90.40
2023-01-22T20:18:54.881Z,90.50
2023-01-22T20:21:24.646Z,90.70
2023-01-22T20:23:52.585Z,91.70
2023-01-22T20:26:23.127Z,92.00
2023-01-22T20:28:51.768Z,91.30
2023-01-22T20:31:23.360Z,90.90
2023-01-22T20:33:55.170Z,90.80
2023-01-22T20:36:27.940Z,92.10
2023-01-22T20:38:56.980Z,91.10
2023-01-22T20:41:27.551Z,91.20
2023-01-22T20:43:55.369Z,91.30
2023-01-22T20:46:25.534Z,91.10
2023-01-22T20:48:53.873Z,91.00
2023-01-22T20:51:26.971Z,91.20
2023-01-22T20:53:56.093Z,91.00
2023-01-22T20:56:28.546Z,90.90
2023-01-22T20:58:58.792Z,91.50
2023-01-22T21:01:27.190Z,91.80
2023-01-22T21:03:56.853Z,91.80
2023-01-22T21:06:26.380Z,92.00
2023-01-22T21:08:56.606Z,92.10
2023-01-22T21:11:25.800Z,92.50
2023-01-22T21:13:56.062Z,92.40
2023-01-22T21:16:27.123Z,92.50
2023-01-22T21:18:57.961Z,92.40
2023-01-22T21:21:26.587Z,92.60
2023-01-22T21:23:55.923Z,92.70
2023-01-22T21:26:28.182Z,93.20
2023-01-22T21:28:58.417Z,92.80
2023-01-22T21:31:26.495Z,92.60
2023-01-22T21:34:03.036Z,92.90
2023-01-22T21:36:42.895Z,93.20
2023-01-22T21:39:14.809Z,93.20
2023-01-22T21:41:43.891Z,93.20
2023-01-22T21:44:31.298Z,93.90
2023-01-22T21:46:59.503Z,93.40
2023-01-22T21:49:28.377Z,93.20
2023-01-22T21:52:05.855Z,93.20
2023-01-22T21:54:39.702Z,93.30
2023-01-22T21:57:09.127Z,93.70
2023-01-22T21:59:38.330Z,93.80
2023-01-22T22:02:08.378Z,93.80
2023-01-22T22:04:36.433Z,93.80
2023-01-22T22:07:11.090Z,93.90
2023-01-22T22:09:40.904Z,93.90
2023-01-22T22:12:10.310Z,94.10
2023-01-22T22:14:38.123Z,93.90
2023-01-22T22:17:05.830Z,93.90
2023-01-22T22:19:33.351Z,93.90
2023-01-22T22:22:00.809Z,94.20
2023-01-22T22:24:28.953Z,94.30
2023-01-22T22:26:57.281Z,94.30
2023-01-22T22:29:25.235Z,94.30
2023-01-22T22:31:53.145Z,94.20
2023-01-22T22:34:21.468Z,93.80
2023-01-22T22:36:49.143Z,93.70
2023-01-22T22:39:17.409Z,94.10
2023-01-22T22:41:45.480Z,94.00
2023-01-22T22:44:15.240Z,94.10
2023-01-22T22:46:43.570Z,94.20
2023-01-22T22:49:14.009Z,94.30
2023-01-22T22:51:43.716Z,94.20
2023-01-22T22:54:17.418Z,93.80
2023-01-22T22:57:05.432Z,93.80
2023-01-22T22:59:33.907Z,93.80
2023-01-22T23:02:01.570Z,94.00
2023-01-22T23:04:29.335Z,94.00
2023-01-22T23:06:56.808Z,94.00
2023-01-22T23:09:28.741Z,93.80
2023-01-22T23:11:58.159Z,93.90
2023-01-22T23:14:26.913Z,94.20
2023-01-22T23:16:54.732Z,94.40
2023-01-22T23:19:27.806Z,94.30
2023-01-22T23:22:00.788Z,94.20
2023-01-22T23:24:29.067Z,94.30
2023-01-22T23:26:57.341Z,94.40
2023-01-22T23:29:27.222Z,94.30
2023-01-22T23:31:56.383Z,94.30
2023-01-22T23:34:44.173Z,94.40
2023-01-22T23:37:11.975Z,94.40
2023-01-22T23:39:40.481Z,94.50
2023-01-22T23:42:10.448Z,94.90
2023-01-22T23:44:38.073Z,95.00
2023-01-22T23:47:06.389Z,94.70
2023-01-22T23:49:34.348Z,95.00
2023-01-22T23:52:02.638Z,94.80
2023-01-22T23:54:30.635Z,94.70
2023-01-22T23:57:11.887Z,94.70
2023-01-22T23:59:39.991Z,94.70
